createdAt,value
2023-05-21T00:03:47.190Z,21.60
2023-05-21T00:08:50.687Z,21.60
2023-05-21T00:13:55.171Z,21.60
2023-05-21T00:18:58.385Z,21.60
2023-05-21T00:24:01.586Z,21.50
2023-05-21T00:29:06.222Z,21.50
2023-05-21T00:34:09.347Z,21.50
2023-05-21T00:39:12.693Z,21.50
2023-05-21T00:44:19.358Z,21.50
2023-05-21T00:49:24.611Z,21.50
2023-05-21T00:54:28.052Z,21.40
2023-05-21T00:59:33.472Z,21.40
2023-05-21T01:04:37.535Z,21.40
2023-05-21T01:09:45.767Z,21.30
2023-05-21T01:14:51.041Z,21.30
2023-05-21T01:19:54.772Z,21.30
2023-05-21T01:25:02.920Z,21.20
2023-05-21T01:30:08.440Z,21.20
2023-05-21T01:35:14.518Z,21.20
2023-05-21T01:40:25.821Z,21.20
2023-05-21T01:45:32.330Z,21.20
2023-05-21T01:50:36.569Z,21.20
2023-05-21T01:55:41.886Z,21.20
2023-05-21T02:00:45.434Z,21.10
2023-05-21T02:05:48.586Z,21.10
2023-05-21T02:10:53.170Z,21.00
2023-05-21T02:15:56.580Z,21.00
2023-05-21T02:20:59.691Z,20.90
2023-05-21T02:26:04.224Z,20.90
2023-05-21T02:31:07.383Z,20.90
2023-05-21T02:36:13.269Z,20.80
2023-05-21T02:41:17.957Z,20.70
2023-05-21T02:46:21.139Z,20.70
2023-05-21T02:51:24.295Z,20.60
2023-05-21T02:56:28.778Z,20.60
2023-05-21T03:01:32.030Z,20.50
2023-05-21T03:06:35.237Z,20.40
2023-05-21T03:11:39.797Z,20.30
2023-05-21T03:16:43.848Z,20.20
2023-05-21T03:21:49.055Z,20.10
2023-05-21T03:26:54.609Z,20.10
2023-05-21T03:31:57.913Z,20.00
2023-05-21T03:37:01.252Z,19.90
2023-05-21T03:42:06.083Z,19.80
2023-05-21T03:47:09.545Z,19.70
2023-05-21T03:52:12.671Z,19.70
2023-05-21T03:57:17.229Z,19.70
2023-05-21T04:02:20.445Z,19.70
2023-05-21T04:07:23.938Z,19.70
2023-05-21T04:12:28.451Z,19.70
2023-05-21T04:17:31.704Z,19.70
2023-05-21T04:22:35.350Z,19.80
2023-05-21T04:27:40.158Z,19.80
2023-05-21T04:32:47.626Z,19.70
2023-05-21T04:37:52.130Z,19.80
2023-05-21T04:42:56.818Z,19.70
2023-05-21T04:48:01.076Z,19.80
2023-05-21T04:53:04.515Z,19.80
2023-05-21T04:58:11.002Z,19.80
2023-05-21T05:03:14.809Z,19.80
2023-05-21T05:08:18.751Z,19.90
2023-05-21T05:13:23.903Z,19.80
2023-05-21T05:18:27.267Z,19.80
2023-05-21T05:23:30.674Z,19.90
2023-05-21T05:28:35.377Z,19.90
2023-05-21T05:33:38.671Z,20.00
2023-05-21T05:38:41.879Z,20.00
2023-05-21T05:43:46.981Z,20.10
2023-05-21T05:48:50.226Z,20.10
2023-05-21T05:53:53.385Z,20.10
2023-05-21T05:58:58.336Z,20.20
2023-05-21T06:04:01.601Z,20.20
2023-05-21T06:09:04.864Z,20.30
2023-05-21T06:14:09.435Z,20.30
2023-05-21T06:19:12.693Z,20.40
2023-05-21T06:24:15.968Z,20.50
2023-05-21T06:29:20.607Z,20.60
2023-05-21T06:34:23.861Z,20.80
2023-05-21T06:39:27.318Z,20.90
2023-05-21T06:44:31.850Z,21.00
2023-05-21T06:49:35.659Z,21.20
2023-05-21T06:54:38.879Z,21.30
2023-05-21T06:59:43.421Z,21.40
2023-05-21T07:04:46.778Z,21.60
2023-05-21T07:09:50.035Z,21.70
2023-05-21T07:14:54.799Z,21.80
2023-05-21T07:19:58.210Z,21.90
2023-05-21T07:25:01.517Z,22.00
2023-05-21T07:30:07.087Z,22.10
2023-05-21T07:35:10.935Z,22.20
2023-05-21T07:40:15.221Z,22.30
2023-05-21T07:45:19.781Z,22.40
2023-05-21T07:50:23.019Z,22.50
2023-05-21T07:55:26.169Z,22.60
2023-05-21T08:00:30.934Z,22.70
2023-05-21T08:05:34.255Z,22.80
2023-05-21T08:10:38.262Z,22.90
2023-05-21T08:15:43.059Z,23.00
2023-05-21T08:20:46.348Z,23.20
2023-05-21T08:25:49.687Z,23.30
2023-05-21T08:30:54.297Z,23.50
2023-05-21T08:35:57.505Z,23.60
2023-05-21T08:41:01.330Z,23.80
2023-05-21T08:46:09.832Z,24.00
2023-05-21T08:51:13.350Z,24.10
2023-05-21T08:56:18.357Z,24.30
2023-05-21T09:01:25.746Z,24.50
2023-05-21T09:06:33.972Z,24.70
2023-05-21T09:11:37.173Z,24.90
2023-05-21T09:16:42.045Z,25.10
2023-05-21T09:21:45.319Z,25.20
2023-05-21T09:26:48.528Z,25.30
2023-05-21T09:31:54.987Z,25.40
2023-05-21T09:36:58.803Z,25.40
2023-05-21T09:42:02.463Z,25.60
2023-05-21T09:47:07.372Z,25.70
2023-05-21T09:52:10.725Z,25.90
2023-05-21T09:57:15.885Z,26.10
2023-05-21T10:02:23.279Z,26.20
2023-05-21T10:07:28.096Z,26.30
2023-05-21T10:12:33.106Z,26.50
2023-05-21T10:17:38.622Z,26.60
2023-05-21T10:22:42.529Z,26.70
2023-05-21T10:27:46.129Z,26.80
2023-05-21T10:32:51.586Z,27.00
2023-05-21T10:37:56.914Z,27.10
2023-05-21T10:43:26.918Z,27.10
2023-05-21T10:48:49.089Z,27.20
2023-05-21T10:54:16.632Z,27.30
2023-05-21T10:59:31.863Z,27.40
2023-05-21T11:04:40.094Z,27.50
2023-05-21T11:09:43.484Z,27.50
2023-05-21T11:14:58.409Z,27.50
2023-05-21T11:20:07.325Z,27.60
2023-05-21T11:25:12.595Z,27.60
2023-05-21T11:30:18.513Z,27.70
2023-05-21T11:35:24.156Z,27.80
2023-05-21T11:40:30.219Z,27.80
2023-05-21T11:45:34.305Z,27.80
2023-05-21T11:50:39.457Z,27.80
2023-05-21T11:55:47.384Z,27.90
2023-05-21T12:00:52.569Z,27.90
2023-05-21T12:06:05.590Z,28.00
2023-05-21T12:11:09.064Z,28.10
2023-05-21T12:16:13.151Z,28.10
2023-05-21T12:21:18.428Z,28.20
2023-05-21T12:26:21.875Z,28.30
2023-05-21T12:31:27.467Z,28.30
2023-05-21T12:36:34.198Z,28.40
2023-05-21T12:41:37.447Z,28.40
2023-05-21T12:46:40.854Z,28.50
2023-05-21T12:51:46.762Z,28.50
2023-05-21T12:56:49.990Z,28.50
2023-05-21T13:01:54.505Z,28.60
2023-05-21T13:06:59.121Z,28.60
2023-05-21T13:12:02.320Z,28.70
2023-05-21T13:17:05.683Z,28.80
2023-05-21T13:22:10.566Z,28.90
2023-05-21T13:27:13.695Z,28.90
2023-05-21T13:32:17.011Z,29.00
2023-05-21T13:37:21.720Z,29.10
2023-05-21T13:42:25.152Z,29.10
2023-05-21T13:47:29.389Z,29.10
2023-05-21T13:52:34.043Z,29.20
2023-05-21T13:57:37.383Z,29.20
2023-05-21T14:02:41.954Z,29.20
2023-05-21T14:07:48.320Z,29.30
2023-05-21T14:12:51.608Z,29.40
2023-05-21T14:17:54.872Z,29.50
2023-05-21T14:22:59.503Z,29.60
2023-05-21T14:28:02.754Z,29.70
2023-05-21T14:33:06.456Z,29.70
2023-05-21T14:38:11.224Z,29.70
2023-05-21T14:43:15.043Z,29.60
2023-05-21T14:48:23.158Z,29.60
2023-05-21T14:53:28.152Z,29.50
2023-05-21T14:58:31.414Z,29.40
2023-05-21T15:03:34.656Z,29.40
2023-05-21T15:08:39.190Z,29.40
2023-05-21T15:13:42.469Z,29.40
2023-05-21T15:18:45.934Z,29.50
2023-05-21T15:23:50.514Z,29.60
2023-05-21T15:28:53.899Z,29.50
2023-05-21T15:33:58.452Z,29.50
2023-05-21T15:39:06.063Z,29.50
2023-05-21T15:44:09.466Z,29.50
2023-05-21T15:49:12.604Z,29.50
2023-05-21T15:54:17.247Z,29.60
2023-05-21T15:59:20.599Z,29.60
2023-05-21T16:04:23.783Z,29.60
2023-05-21T16:09:28.358Z,29.60
2023-05-21T16:14:31.618Z,29.60
2023-05-21T16:19:34.984Z,29.60
2023-05-21T16:24:39.847Z,29.60
2023-05-21T16:29:43.239Z,29.60
2023-05-21T16:34:46.485Z,29.70
2023-05-21T16:39:51.068Z,29.70
2023-05-21T16:44:54.297Z,29.60
2023-05-21T16:49:58.564Z,29.60
2023-05-21T16:55:03.806Z,29.60
2023-05-21T17:00:08.176Z,29.50
2023-05-21T17:05:11.346Z,29.40
2023-05-21T17:10:16.300Z,29.40
2023-05-21T17:15:19.470Z,29.30
2023-05-21T17:20:22.628Z,29.20
2023-05-21T17:25:27.242Z,29.10
2023-05-21T17:30:30.567Z,29.10
2023-05-21T17:35:33.834Z,29.10
2023-05-21T17:40:38.472Z,29.00
2023-05-21T17:45:41.593Z,29.00
2023-05-21T17:50:47.057Z,28.90
2023-05-21T17:55:51.685Z,28.90
2023-05-21T18:00:54.895Z,28.80
2023-05-21T18:05:58.158Z,28.70
2023-05-21T18:11:02.839Z,28.70
2023-05-21T18:16:06.626Z,28.70
2023-05-21T18:21:10.024Z,28.50
2023-05-21T18:26:14.612Z,28.50
2023-05-21T18:31:18.234Z,28.40
2023-05-21T18:36:21.559Z,28.30
2023-05-21T18:41:26.607Z,28.20
2023-05-21T18:46:30.333Z,28.20
2023-05-21T18:51:33.843Z,28.10
2023-05-21T18:56:39.133Z,28.00
2023-05-21T19:01:42.443Z,27.90
2023-05-21T19:06:45.780Z,27.70
2023-05-21T19:11:50.942Z,27.60
2023-05-21T19:16:54.154Z,27.40
2023-05-21T19:21:57.631Z,27.30
2023-05-21T19:27:02.275Z,27.20
2023-05-21T19:32:05.710Z,27.10
2023-05-21T19:37:09.132Z,26.90
2023-05-21T19:42:13.676Z,26.80
2023-05-21T19:47:16.972Z,26.70
2023-05-21T19:52:20.402Z,26.60
2023-05-21T19:57:24.959Z,26.50
2023-05-21T20:02:28.766Z,26.40
2023-05-21T20:07:31.978Z,26.30
2023-05-21T20:12:36.870Z,26.20
2023-05-21T20:17:42.930Z,26.10
2023-05-21T20:22:47.029Z,26.00
2023-05-21T20:27:51.786Z,25.90
2023-05-21T20:32:55.016Z,25.80
2023-05-21T20:37:58.255Z,25.70
2023-05-21T20:43:02.877Z,25.60
2023-05-21T20:48:06.746Z,25.50
2023-05-21T20:53:10.279Z,25.40
2023-05-21T20:58:14.854Z,25.40
2023-05-21T21:03:18.819Z,25.30
2023-05-21T21:08:22.290Z,25.20
2023-05-21T21:13:27.233Z,25.10
2023-05-21T21:18:30.635Z,25.00
2023-05-21T21:23:34.000Z,25.00
2023-05-21T21:28:39.047Z,24.90
2023-05-21T21:33:42.201Z,24.90
2023-05-21T21:38:45.491Z,24.80
2023-05-21T21:43:50.169Z,24.80
2023-05-21T21:48:53.377Z,24.70
2023-05-21T21:53:56.513Z,24.70
2023-05-21T21:59:01.110Z,24.60
2023-05-21T22:04:04.272Z,24.60
2023-05-21T22:09:07.976Z,24.50
2023-05-21T22:14:12.858Z,24.50
2023-05-21T22:19:17.916Z,24.50
2023-05-21T22:24:32.044Z,24.40
2023-05-21T22:29:37.570Z,24.40
2023-05-21T22:34:41.924Z,24.30
2023-05-21T22:39:45.087Z,24.10
2023-05-21T22:44:49.667Z,24.00
2023-05-21T22:49:53.260Z,23.90
2023-05-21T22:54:57.886Z,23.80
2023-05-21T23:00:02.431Z,23.70
2023-05-21T23:05:06.479Z,23.70
2023-05-21T23:10:10.493Z,23.60
2023-05-21T23:15:15.084Z,23.50
2023-05-21T23:20:18.882Z,23.40
2023-05-21T23:25:22.067Z,23.30
2023-05-21T23:30:26.557Z,23.20
2023-05-21T23:35:29.817Z,23.10
2023-05-21T23:40:32.939Z,23.00
2023-05-21T23:45:37.544Z,23.00
2023-05-21T23:50:40.890Z,22.90
2023-05-21T23:55:45.504Z,22.90
